sensor_id;sensor_type;location;lat;lon;timestamp;pressure;altitude;pressure_sealevel;temperature;humidity
53900;BME280;40509;32.858;-116.858;2023-06-14T00:00:47;97964.28;;;22.64;55.74
53900;BME280;40509;32.858;-116.858;2023-06-14T00:03:15;97963.47;;;22.63;55.74
53900;BME280;40509;32.858;-116.858;2023-06-14T00:05:43;97963.31;;;22.65;55.82
53900;BME280;40509;32.858;-116.858;2023-06-14T00:08:12;97959.72;;;22.66;55.70
53900;BME280;40509;32.858;-116.858;2023-06-14T00:10:39;97964.00;;;22.67;55.83
53900;BME280;40509;32.858;-116.858;2023-06-14T00:13:11;97961.38;;;22.67;55.62
53900;BME280;40509;32.858;-116.858;2023-06-14T00:15:38;97960.34;;;22.68;55.83
53900;BME280;40509;32.858;-116.858;2023-06-14T00:18:04;97958.88;;;22.65;55.60
53900;BME280;40509;32.858;-116.858;2023-06-14T00:20:32;97959.22;;;22.70;55.62
53900;BME280;40509;32.858;-116.858;2023-06-14T00:22:59;97958.25;;;22.71;55.77
53900;BME280;40509;32.858;-116.858;2023-06-14T00:25:26;97965.00;;;22.74;55.42
53900;BME280;40509;32.858;-116.858;2023-06-14T00:27:54;97959.91;;;22.72;55.36
53900;BME280;40509;32.858;-116.858;2023-06-14T00:30:21;97958.75;;;22.75;55.46
53900;BME280;40509;32.858;-116.858;2023-06-14T00:32:48;97950.88;;;22.75;55.53
53900;BME280;40509;32.858;-116.858;2023-06-14T00:35:15;97949.22;;;22.74;55.31
53900;BME280;40509;32.858;-116.858;2023-06-14T00:37:42;97954.16;;;22.77;55.65
53900;BME280;40509;32.858;-116.858;2023-06-14T00:40:08;97955.97;;;22.77;55.74
53900;BME280;40509;32.858;-116.858;2023-06-14T00:42:35;97948.88;;;22.77;55.72
53900;BME280;40509;32.858;-116.858;2023-06-14T00:45:02;97959.25;;;22.79;55.71
53900;BME280;40509;32.858;-116.858;2023-06-14T00:47:29;97954.50;;;22.82;55.62
53900;BME280;40509;32.858;-116.858;2023-06-14T00:49:56;97939.03;;;22.79;54.51
53900;BME280;40509;32.858;-116.858;2023-06-14T00:52:23;97943.06;;;22.65;54.38
53900;BME280;40509;32.858;-116.858;2023-06-14T00:54:51;97939.44;;;22.58;53.97
53900;BME280;40509;32.858;-116.858;2023-06-14T00:57:18;97947.81;;;22.53;53.35
53900;BME280;40509;32.858;-116.858;2023-06-14T00:59:48;97941.09;;;22.59;53.64
53900;BME280;40509;32.858;-116.858;2023-06-14T01:04:43;97932.84;;;22.01;51.17
53900;BME280;40509;32.858;-116.858;2023-06-14T01:09:49;97930.63;;;21.52;54.85
53900;BME280;40509;32.858;-116.858;2023-06-14T01:12:21;97931.78;;;21.68;54.91
53900;BME280;40509;32.858;-116.858;2023-06-14T01:14:51;97926.78;;;22.01;54.20
53900;BME280;40509;32.858;-116.858;2023-06-14T01:17:21;97926.66;;;22.11;54.06
53900;BME280;40509;32.858;-116.858;2023-06-14T01:19:50;97923.38;;;22.09;54.14
53900;BME280;40509;32.858;-116.858;2023-06-14T01:22:26;97922.94;;;22.21;53.66
53900;BME280;40509;32.858;-116.858;2023-06-14T01:24:55;97923.97;;;22.02;54.13
53900;BME280;40509;32.858;-116.858;2023-06-14T01:27:22;97925.69;;;21.67;54.51
53900;BME280;40509;32.858;-116.858;2023-06-14T01:29:51;97924.94;;;21.75;54.78
53900;BME280;40509;32.858;-116.858;2023-06-14T01:32:23;97932.66;;;21.77;54.81
53900;BME280;40509;32.858;-116.858;2023-06-14T01:34:51;97929.81;;;21.70;54.72
53900;BME280;40509;32.858;-116.858;2023-06-14T01:37:19;97925.25;;;21.72;54.48
53900;BME280;40509;32.858;-116.858;2023-06-14T01:39:47;97924.44;;;21.53;55.23
53900;BME280;40509;32.858;-116.858;2023-06-14T01:42:18;97930.78;;;21.69;54.58
53900;BME280;40509;32.858;-116.858;2023-06-14T01:44:46;97929.75;;;21.62;54.87
53900;BME280;40509;32.858;-116.858;2023-06-14T01:47:14;97935.38;;;21.67;54.66
53900;BME280;40509;32.858;-116.858;2023-06-14T01:49:41;97930.78;;;21.69;54.64
53900;BME280;40509;32.858;-116.858;2023-06-14T01:52:08;97934.69;;;21.65;54.79
53900;BME280;40509;32.858;-116.858;2023-06-14T01:54:36;97937.47;;;21.63;54.75
53900;BME280;40509;32.858;-116.858;2023-06-14T01:57:08;97942.91;;;21.62;54.80
53900;BME280;40509;32.858;-116.858;2023-06-14T01:59:35;97945.69;;;21.60;54.49
53900;BME280;40509;32.858;-116.858;2023-06-14T02:02:02;97952.75;;;21.50;54.83
53900;BME280;40509;32.858;-116.858;2023-06-14T02:04:32;97955.53;;;21.48;54.76
53900;BME280;40509;32.858;-116.858;2023-06-14T02:06:58;97957.78;;;21.43;54.73
53900;BME280;40509;32.858;-116.858;2023-06-14T02:09:25;97962.16;;;21.34;54.82
53900;BME280;40509;32.858;-116.858;2023-06-14T02:11:54;97966.28;;;21.37;54.74
53900;BME280;40509;32.858;-116.858;2023-06-14T02:14:21;97961.91;;;21.28;54.86
53900;BME280;40509;32.858;-116.858;2023-06-14T02:16:48;97965.81;;;21.23;55.02
53900;BME280;40509;32.858;-116.858;2023-06-14T02:19:15;97960.25;;;21.27;54.96
53900;BME280;40509;32.858;-116.858;2023-06-14T02:21:43;97958.72;;;21.34;54.83
53900;BME280;40509;32.858;-116.858;2023-06-14T02:24:13;97969.78;;;21.46;55.08
53900;BME280;40509;32.858;-116.858;2023-06-14T02:26:39;97952.53;;;21.43;54.38
53900;BME280;40509;32.858;-116.858;2023-06-14T02:29:14;97963.72;;;21.45;54.52
53900;BME280;40509;32.858;-116.858;2023-06-14T02:31:42;97964.53;;;21.46;54.39
53900;BME280;40509;32.858;-116.858;2023-06-14T02:34:09;97966.75;;;21.50;54.00
53900;BME280;40509;32.858;-116.858;2023-06-14T02:36:36;97956.16;;;21.42;54.18
53900;BME280;40509;32.858;-116.858;2023-06-14T02:39:08;97962.75;;;21.46;54.38
53900;BME280;40509;32.858;-116.858;2023-06-14T02:41:42;97962.16;;;21.52;53.93
53900;BME280;40509;32.858;-116.858;2023-06-14T02:44:09;97962.38;;;21.41;54.41
53900;BME280;40509;32.858;-116.858;2023-06-14T02:46:38;97959.34;;;21.64;54.12
53900;BME280;40509;32.858;-116.858;2023-06-14T02:49:05;97956.47;;;21.75;53.69
53900;BME280;40509;32.858;-116.858;2023-06-14T02:51:31;97956.69;;;21.82;53.64
53900;BME280;40509;32.858;-116.858;2023-06-14T02:53:58;97959.53;;;21.88;53.47
53900;BME280;40509;32.858;-116.858;2023-06-14T02:56:25;97960.88;;;21.93;53.43
53900;BME280;40509;32.858;-116.858;2023-06-14T02:58:52;97976.34;;;21.96;53.34
53900;BME280;40509;32.858;-116.858;2023-06-14T03:01:19;97967.31;;;21.98;53.26
53900;BME280;40509;32.858;-116.858;2023-06-14T03:03:48;97969.78;;;22.00;53.21
53900;BME280;40509;32.858;-116.858;2023-06-14T03:06:14;97977.69;;;22.00;53.40
53900;BME280;40509;32.858;-116.858;2023-06-14T03:08:45;97982.34;;;22.06;53.39
53900;BME280;40509;32.858;-116.858;2023-06-14T03:11:15;97984.28;;;22.04;53.77
53900;BME280;40509;32.858;-116.858;2023-06-14T03:13:45;97985.13;;;22.04;53.57
53900;BME280;40509;32.858;-116.858;2023-06-14T03:16:13;97988.56;;;22.05;53.75
53900;BME280;40509;32.858;-116.858;2023-06-14T03:18:41;97983.31;;;22.05;53.67
53900;BME280;40509;32.858;-116.858;2023-06-14T03:21:07;97987.59;;;22.06;53.75
53900;BME280;40509;32.858;-116.858;2023-06-14T03:23:37;97989.38;;;22.05;53.71
53900;BME280;40509;32.858;-116.858;2023-06-14T03:26:04;97997.94;;;22.08;53.80
53900;BME280;40509;32.858;-116.858;2023-06-14T03:28:32;97991.88;;;22.07;53.88
53900;BME280;40509;32.858;-116.858;2023-06-14T03:30:59;98001.41;;;22.08;53.92
53900;BME280;40509;32.858;-116.858;2023-06-14T03:33:31;98002.41;;;22.07;53.94
53900;BME280;40509;32.858;-116.858;2023-06-14T03:35:58;98004.03;;;22.08;54.16
53900;BME280;40509;32.858;-116.858;2023-06-14T03:38:27;98008.31;;;22.09;54.01
53900;BME280;40509;32.858;-116.858;2023-06-14T03:40:54;98009.13;;;22.10;54.01
53900;BME280;40509;32.858;-116.858;2023-06-14T03:43:21;98009.00;;;22.11;54.14
53900;BME280;40509;32.858;-116.858;2023-06-14T03:45:48;98010.78;;;22.11;54.19
53900;BME280;40509;32.858;-116.858;2023-06-14T03:48:15;98011.75;;;22.10;54.14
53900;BME280;40509;32.858;-116.858;2023-06-14T03:50:43;98014.38;;;22.10;54.35
53900;BME280;40509;32.858;-116.858;2023-06-14T03:53:10;98016.19;;;22.09;54.37
53900;BME280;40509;32.858;-116.858;2023-06-14T03:55:40;98021.31;;;22.11;54.31
53900;BME280;40509;32.858;-116.858;2023-06-14T03:58:07;98024.78;;;22.11;54.40
53900;BME280;40509;32.858;-116.858;2023-06-14T04:00:36;98027.53;;;22.10;54.34
53900;BME280;40509;32.858;-116.858;2023-06-14T04:03:03;98026.88;;;22.08;54.34
53900;BME280;40509;32.858;-116.858;2023-06-14T04:05:32;98033.25;;;22.05;54.72
53900;BME280;40509;32.858;-116.858;2023-06-14T04:07:59;98039.47;;;22.04;54.69
53900;BME280;40509;32.858;-116.858;2023-06-14T04:10:27;98038.50;;;22.05;54.49
53900;BME280;40509;32.858;-116.858;2023-06-14T04:12:54;98041.13;;;22.05;54.64
53900;BME280;40509;32.858;-116.858;2023-06-14T04:15:22;98043.09;;;22.03;54.78
53900;BME280;40509;32.858;-116.858;2023-06-14T04:17:52;98050.16;;;22.02;54.69
53900;BME280;40509;32.858;-116.858;2023-06-14T04:20:24;98042.13;;;22.04;54.85
53900;BME280;40509;32.858;-116.858;2023-06-14T04:22:51;98044.91;;;22.02;54.93
53900;BME280;40509;32.858;-116.858;2023-06-14T04:25:19;98043.78;;;22.05;54.71
53900;BME280;40509;32.858;-116.858;2023-06-14T04:27:47;98044.75;;;22.04;55.03
53900;BME280;40509;32.858;-116.858;2023-06-14T04:30:14;98049.19;;;22.03;54.99
53900;BME280;40509;32.858;-116.858;2023-06-14T04:32:47;98041.84;;;22.07;55.03
53900;BME280;40509;32.858;-116.858;2023-06-14T04:35:16;98057.59;;;22.07;54.78
53900;BME280;40509;32.858;-116.858;2023-06-14T04:37:45;98054.97;;;22.07;55.10
53900;BME280;40509;32.858;-116.858;2023-06-14T04:40:12;98054.97;;;22.07;54.82
53900;BME280;40509;32.858;-116.858;2023-06-14T04:42:40;98060.22;;;22.07;54.79
53900;BME280;40509;32.858;-116.858;2023-06-14T04:45:11;98060.22;;;22.07;55.25
53900;BME280;40509;32.858;-116.858;2023-06-14T04:47:40;98066.16;;;22.09;54.81
53900;BME280;40509;32.858;-116.858;2023-06-14T04:50:08;98068.78;;;22.09;54.85
53900;BME280;40509;32.858;-116.858;2023-06-14T04:52:37;98066.16;;;22.09;54.76
53900;BME280;40509;32.858;-116.858;2023-06-14T04:55:05;98070.59;;;22.09;54.86
53900;BME280;40509;32.858;-116.858;2023-06-14T04:57:33;98071.56;;;22.08;54.81
53900;BME280;40509;32.858;-116.858;2023-06-14T05:00:01;98077.63;;;22.08;54.72
53900;BME280;40509;32.858;-116.858;2023-06-14T05:02:31;98071.72;;;22.06;54.91
53900;BME280;40509;32.858;-116.858;2023-06-14T05:04:59;98063.84;;;22.06;55.01
53900;BME280;40509;32.858;-116.858;2023-06-14T05:07:28;98065.63;;;22.05;54.91
53900;BME280;40509;32.858;-116.858;2023-06-14T05:09:55;98066.47;;;22.06;54.94
53900;BME280;40509;32.858;-116.858;2023-06-14T05:12:22;98059.53;;;22.05;54.90
53900;BME280;40509;32.858;-116.858;2023-06-14T05:14:49;98054.28;;;22.05;54.81
53900;BME280;40509;32.858;-116.858;2023-06-14T05:17:19;98053.47;;;22.04;54.93
53900;BME280;40509;32.858;-116.858;2023-06-14T05:19:46;98055.25;;;22.04;54.82
53900;BME280;40509;32.858;-116.858;2023-06-14T05:22:13;98046.41;;;22.05;55.01
53900;BME280;40509;32.858;-116.858;2023-06-14T05:24:40;98046.25;;;22.06;54.84
53900;BME280;40509;32.858;-116.858;2023-06-14T05:27:07;98041.13;;;22.05;54.74
53900;BME280;40509;32.858;-116.858;2023-06-14T05:29:34;98042.13;;;22.04;54.79
53900;BME280;40509;32.858;-116.858;2023-06-14T05:32:01;98037.69;;;22.04;54.77
53900;BME280;40509;32.858;-116.858;2023-06-14T05:34:28;98041.97;;;22.05;54.73
53900;BME280;40509;32.858;-116.858;2023-06-14T05:36:55;98043.78;;;22.05;54.70
53900;BME280;40509;32.858;-116.858;2023-06-14T05:39:22;98046.41;;;22.05;54.65
53900;BME280;40509;32.858;-116.858;2023-06-14T05:41:50;98031.59;;;22.04;54.66
53900;BME280;40509;32.858;-116.858;2023-06-14T05:44:17;98035.19;;;22.03;54.68
53900;BME280;40509;32.858;-116.858;2023-06-14T05:46:44;98034.22;;;22.04;54.63
53900;BME280;40509;32.858;-116.858;2023-06-14T05:49:11;98040.44;;;22.03;54.83
53900;BME280;40509;32.858;-116.858;2023-06-14T05:51:38;98041.28;;;22.03;54.85
53900;BME280;40509;32.858;-116.858;2023-06-14T05:54:05;98037.00;;;22.02;54.99
53900;BME280;40509;32.858;-116.858;2023-06-14T05:56:32;98035.19;;;22.03;54.71
53900;BME280;40509;32.858;-116.858;2023-06-14T05:58:59;98036.19;;;22.02;54.67
53900;BME280;40509;32.858;-116.858;2023-06-14T06:01:26;98033.56;;;22.02;54.63
53900;BME280;40509;32.858;-116.858;2023-06-14T06:03:53;98028.31;;;22.02;54.65
53900;BME280;40509;32.858;-116.858;2023-06-14T06:06:27;98025.00;;;22.00;54.67
53900;BME280;40509;32.858;-116.858;2023-06-14T06:08:55;98027.47;;;22.01;54.79
53900;BME280;40509;32.858;-116.858;2023-06-14T06:11:21;98022.22;;;22.01;54.59
53900;BME280;40509;32.858;-116.858;2023-06-14T06:13:48;98016.94;;;22.01;54.82
53900;BME280;40509;32.858;-116.858;2023-06-14T06:16:15;98016.94;;;22.01;54.73
53900;BME280;40509;32.858;-116.858;2023-06-14T06:18:42;98012.81;;;21.99;54.69
53900;BME280;40509;32.858;-116.858;2023-06-14T06:21:09;98006.59;;;22.00;54.66
53900;BME280;40509;32.858;-116.858;2023-06-14T06:23:36;98007.56;;;21.99;54.61
53900;BME280;40509;32.858;-116.858;2023-06-14T06:26:03;98002.03;;;22.02;54.54
53900;BME280;40509;32.858;-116.858;2023-06-14T06:28:30;98000.38;;;22.01;54.54
53900;BME280;40509;32.858;-116.858;2023-06-14T06:30:56;97996.94;;;22.00;54.64
53900;BME280;40509;32.858;-116.858;2023-06-14T06:33:23;97990.97;;;21.98;54.69
53900;BME280;40509;32.858;-116.858;2023-06-14T06:35:50;97996.41;;;21.97;54.87
53900;BME280;40509;32.858;-116.858;2023-06-14T06:38:17;97988.19;;;22.00;54.50
53900;BME280;40509;32.858;-116.858;2023-06-14T06:40:45;97990.97;;;21.98;54.61
53900;BME280;40509;32.858;-116.858;2023-06-14T06:43:12;97992.63;;;21.99;54.69
53900;BME280;40509;32.858;-116.858;2023-06-14T06:45:46;97994.41;;;21.99;54.60
53900;BME280;40509;32.858;-116.858;2023-06-14T06:48:13;97995.41;;;21.98;54.49
53900;BME280;40509;32.858;-116.858;2023-06-14T06:50:40;97991.78;;;21.99;54.40
53900;BME280;40509;32.858;-116.858;2023-06-14T06:53:06;97996.25;;;21.98;54.36
53900;BME280;40509;32.858;-116.858;2023-06-14T06:55:34;97984.91;;;21.98;54.36
53900;BME280;40509;32.858;-116.858;2023-06-14T06:58:00;97989.31;;;21.97;54.37
53900;BME280;40509;32.858;-116.858;2023-06-14T07:00:27;97985.88;;;21.97;54.34
53900;BME280;40509;32.858;-116.858;2023-06-14T07:02:54;97989.47;;;21.96;54.52
53900;BME280;40509;32.858;-116.858;2023-06-14T07:05:21;97994.06;;;21.94;54.39
53900;BME280;40509;32.858;-116.858;2023-06-14T07:07:48;97989.78;;;21.93;54.42
53900;BME280;40509;32.858;-116.858;2023-06-14T07:10:15;97985.50;;;21.92;54.60
53900;BME280;40509;32.858;-116.858;2023-06-14T07:12:42;97979.59;;;21.89;54.75
53900;BME280;40509;32.858;-116.858;2023-06-14T07:15:08;97977.78;;;21.90;54.61
53900;BME280;40509;32.858;-116.858;2023-06-14T07:17:35;97983.19;;;21.88;54.50
53900;BME280;40509;32.858;-116.858;2023-06-14T07:20:03;97976.28;;;21.87;54.75
53900;BME280;40509;32.858;-116.858;2023-06-14T07:22:50;97979.72;;;21.88;54.38
53900;BME280;40509;32.858;-116.858;2023-06-14T07:25:17;97973.50;;;21.89;54.65
53900;BME280;40509;32.858;-116.858;2023-06-14T07:27:46;97977.78;;;21.90;54.58
53900;BME280;40509;32.858;-116.858;2023-06-14T07:30:12;97976.13;;;21.89;54.56
53900;BME280;40509;32.858;-116.858;2023-06-14T07:32:40;97976.28;;;21.87;54.56
53900;BME280;40509;32.858;-116.858;2023-06-14T07:35:07;97972.00;;;21.86;54.52
53900;BME280;40509;32.858;-116.858;2023-06-14T07:37:34;97970.06;;;21.88;54.58
53900;BME280;40509;32.858;-116.858;2023-06-14T07:40:01;97965.91;;;21.86;54.68
53900;BME280;40509;32.858;-116.858;2023-06-14T07:42:36;97965.09;;;21.85;54.52
53900;BME280;40509;32.858;-116.858;2023-06-14T07:45:03;97958.19;;;21.84;54.52
53900;BME280;40509;32.858;-116.858;2023-06-14T07:47:30;97959.97;;;21.84;54.59
53900;BME280;40509;32.858;-116.858;2023-06-14T07:49:57;97959.31;;;21.82;54.75
53900;BME280;40509;32.858;-116.858;2023-06-14T07:52:24;97954.72;;;21.84;54.61
53900;BME280;40509;32.858;-116.858;2023-06-14T07:54:51;97955.88;;;21.81;54.54
53900;BME280;40509;32.858;-116.858;2023-06-14T07:57:18;97956.84;;;21.80;54.49
53900;BME280;40509;32.858;-116.858;2023-06-14T07:59:46;97957.50;;;21.82;54.46
53900;BME280;40509;32.858;-116.858;2023-06-14T08:02:14;97949.13;;;21.79;54.68
53900;BME280;40509;32.858;-116.858;2023-06-14T08:04:41;97949.13;;;21.79;54.71
53900;BME280;40509;32.858;-116.858;2023-06-14T08:07:08;97948.28;;;21.78;54.44
53900;BME280;40509;32.858;-116.858;2023-06-14T08:09:35;97943.03;;;21.78;54.44
53900;BME280;40509;32.858;-116.858;2023-06-14T08:12:05;97940.72;;;21.75;54.51
53900;BME280;40509;32.858;-116.858;2023-06-14T08:14:35;97936.25;;;21.76;54.82
53900;BME280;40509;32.858;-116.858;2023-06-14T08:17:02;97941.41;;;21.77;54.50
53900;BME280;40509;32.858;-116.858;2023-06-14T08:19:29;97938.09;;;21.75;54.66
53900;BME280;40509;32.858;-116.858;2023-06-14T08:21:57;97945.16;;;21.75;54.57
53900;BME280;40509;32.858;-116.858;2023-06-14T08:24:24;97941.69;;;21.74;54.57
53900;BME280;40509;32.858;-116.858;2023-06-14T08:26:51;97941.69;;;21.74;54.59
53900;BME280;40509;32.858;-116.858;2023-06-14T08:29:18;97928.69;;;21.72;54.54
53900;BME280;40509;32.858;-116.858;2023-06-14T08:31:45;97937.25;;;21.75;54.71
53900;BME280;40509;32.858;-116.858;2023-06-14T08:34:12;97932.97;;;21.73;54.62
53900;BME280;40509;32.858;-116.858;2023-06-14T08:36:39;97927.88;;;21.72;54.56
53900;BME280;40509;32.858;-116.858;2023-06-14T08:39:06;97930.50;;;21.72;54.54
53900;BME280;40509;32.858;-116.858;2023-06-14T08:41:35;97923.59;;;21.71;54.56
53900;BME280;40509;32.858;-116.858;2023-06-14T08:44:02;97919.31;;;21.70;54.64
53900;BME280;40509;32.858;-116.858;2023-06-14T08:46:28;97928.03;;;21.70;54.63
53900;BME280;40509;32.858;-116.858;2023-06-14T08:49:00;97927.19;;;21.70;54.59
53900;BME280;40509;32.858;-116.858;2023-06-14T08:51:28;97929.00;;;21.69;54.46
53900;BME280;40509;32.858;-116.858;2023-06-14T08:54:00;97920.28;;;21.69;54.56
53900;BME280;40509;32.858;-116.858;2023-06-14T08:56:28;97916.03;;;21.68;54.63
53900;BME280;40509;32.858;-116.858;2023-06-14T08:58:55;97922.25;;;21.67;54.50
53900;BME280;40509;32.858;-116.858;2023-06-14T09:01:23;97926.53;;;21.68;54.39
53900;BME280;40509;32.858;-116.858;2023-06-14T09:03:50;97928.47;;;21.66;54.38
53900;BME280;40509;32.858;-116.858;2023-06-14T09:06:17;97924.88;;;21.67;54.36
53900;BME280;40509;32.858;-116.858;2023-06-14T09:08:46;97917.16;;;21.65;54.50
53900;BME280;40509;32.858;-116.858;2023-06-14T09:11:14;97924.06;;;21.66;54.51
53900;BME280;40509;32.858;-116.858;2023-06-14T09:13:41;97918.81;;;21.66;54.52
53900;BME280;40509;32.858;-116.858;2023-06-14T09:16:09;97920.75;;;21.64;54.55
53900;BME280;40509;32.858;-116.858;2023-06-14T09:21:04;97915.66;;;21.63;54.53
53900;BME280;40509;32.858;-116.858;2023-06-14T09:23:39;97917.97;;;21.66;54.38
53900;BME280;40509;32.858;-116.858;2023-06-14T09:26:07;97919.94;;;21.64;54.55
53900;BME280;40509;32.858;-116.858;2023-06-14T09:28:34;97921.56;;;21.65;54.51
53900;BME280;40509;32.858;-116.858;2023-06-14T09:31:01;97916.63;;;21.62;54.49
53900;BME280;40509;32.858;-116.858;2023-06-14T09:33:28;97909.44;;;21.64;54.35
53900;BME280;40509;32.858;-116.858;2023-06-14T09:35:54;97914.00;;;21.62;54.46
53900;BME280;40509;32.858;-116.858;2023-06-14T09:38:21;97906.13;;;21.62;54.49
53900;BME280;40509;32.858;-116.858;2023-06-14T09:40:49;97900.06;;;21.61;54.49
53900;BME280;40509;32.858;-116.858;2023-06-14T09:43:16;97888.53;;;21.62;54.47
53900;BME280;40509;32.858;-116.858;2023-06-14T09:45:44;97893.13;;;21.60;54.32
53900;BME280;40509;32.858;-116.858;2023-06-14T09:48:14;97886.59;;;21.64;54.17
53900;BME280;40509;32.858;-116.858;2023-06-14T09:50:46;97895.63;;;21.62;54.35
53900;BME280;40509;32.858;-116.858;2023-06-14T09:53:15;97892.31;;;21.60;54.26
53900;BME280;40509;32.858;-116.858;2023-06-14T09:55:44;97893.28;;;21.59;54.13
53900;BME280;40509;32.858;-116.858;2023-06-14T09:58:11;97883.59;;;21.59;54.18
53900;BME280;40509;32.858;-116.858;2023-06-14T10:00:41;97887.88;;;21.60;54.25
53900;BME280;40509;32.858;-116.858;2023-06-14T10:03:14;97883.91;;;21.56;54.32
53900;BME280;40509;32.858;-116.858;2023-06-14T10:05:43;97876.84;;;21.56;54.44
53900;BME280;40509;32.858;-116.858;2023-06-14T10:08:13;97886.53;;;21.56;54.34
53900;BME280;40509;32.858;-116.858;2023-06-14T10:10:42;97883.75;;;21.58;54.48
53900;BME280;40509;32.858;-116.858;2023-06-14T10:13:09;97882.09;;;21.56;54.28
53900;BME280;40509;32.858;-116.858;2023-06-14T10:18:24;97895.25;;;21.56;54.18
53900;BME280;40509;32.858;-116.858;2023-06-14T10:23:38;97893.84;;;21.52;54.55
53900;BME280;40509;32.858;-116.858;2023-06-14T10:26:07;97900.81;;;21.53;54.28
53900;BME280;40509;32.858;-116.858;2023-06-14T10:28:37;97891.22;;;21.52;54.57
53900;BME280;40509;32.858;-116.858;2023-06-14T10:31:07;97892.22;;;21.51;54.40
53900;BME280;40509;32.858;-116.858;2023-06-14T10:33:35;97894.00;;;21.51;54.36
53900;BME280;40509;32.858;-116.858;2023-06-14T10:36:08;97891.22;;;21.52;54.25
53900;BME280;40509;32.858;-116.858;2023-06-14T10:38:42;97887.34;;;21.56;54.24
53900;BME280;40509;32.858;-116.858;2023-06-14T10:41:09;97887.94;;;21.50;54.42
53900;BME280;40509;32.858;-116.858;2023-06-14T10:43:36;97886.28;;;21.49;54.50
53900;BME280;40509;32.858;-116.858;2023-06-14T10:46:18;97890.56;;;21.50;54.52
53900;BME280;40509;32.858;-116.858;2023-06-14T10:48:49;97884.34;;;21.51;54.27
53900;BME280;40509;32.858;-116.858;2023-06-14T10:51:23;97882.97;;;21.47;54.39
53900;BME280;40509;32.858;-116.858;2023-06-14T10:53:50;97889.88;;;21.48;54.16
53900;BME280;40509;32.858;-116.858;2023-06-14T10:56:26;97894.16;;;21.49;54.23
53900;BME280;40509;32.858;-116.858;2023-06-14T10:58:53;97904.69;;;21.49;54.24
53900;BME280;40509;32.858;-116.858;2023-06-14T11:01:22;97900.41;;;21.48;54.35
53900;BME280;40509;32.858;-116.858;2023-06-14T11:03:53;97897.50;;;21.51;54.32
53900;BME280;40509;32.858;-116.858;2023-06-14T11:06:21;97901.53;;;21.46;54.40
53900;BME280;40509;32.858;-116.858;2023-06-14T11:11:38;97903.03;;;21.48;54.27
53900;BME280;40509;32.858;-116.858;2023-06-14T11:14:08;97903.34;;;21.45;54.34
53900;BME280;40509;32.858;-116.858;2023-06-14T11:16:35;97907.91;;;21.43;54.46
53900;BME280;40509;32.858;-116.858;2023-06-14T11:19:03;97908.06;;;21.42;54.29
53900;BME280;40509;32.858;-116.858;2023-06-14T11:21:31;97912.03;;;21.46;54.19
53900;BME280;40509;32.858;-116.858;2023-06-14T11:23:59;97905.97;;;21.45;54.19
53900;BME280;40509;32.858;-116.858;2023-06-14T11:26:29;97921.03;;;21.43;54.42
53900;BME280;40509;32.858;-116.858;2023-06-14T11:28:57;97918.41;;;21.43;54.40
53900;BME280;40509;32.858;-116.858;2023-06-14T11:31:26;97908.75;;;21.44;54.25
53900;BME280;40509;32.858;-116.858;2023-06-14T11:33:53;97902.66;;;21.43;54.12
53900;BME280;40509;32.858;-116.858;2023-06-14T11:36:21;97897.84;;;21.38;54.28
53900;BME280;40509;32.858;-116.858;2023-06-14T11:38:47;97894.84;;;21.33;54.39
53900;BME280;40509;32.858;-116.858;2023-06-14T11:41:14;97896.03;;;21.39;54.38
53900;BME280;40509;32.858;-116.858;2023-06-14T11:43:41;97891.25;;;21.34;54.18
53900;BME280;40509;32.858;-116.858;2023-06-14T11:46:14;97891.56;;;21.31;54.50
53900;BME280;40509;32.858;-116.858;2023-06-14T11:48:48;97892.69;;;21.29;54.28
53900;BME280;40509;32.858;-116.858;2023-06-14T11:51:15;97888.09;;;21.31;54.23
53900;BME280;40509;32.858;-116.858;2023-06-14T11:53:42;97890.88;;;21.29;54.20
53900;BME280;40509;32.858;-116.858;2023-06-14T11:56:09;97893.34;;;21.31;54.26
53900;BME280;40509;32.858;-116.858;2023-06-14T11:58:36;97889.16;;;21.38;54.05
53900;BME280;40509;32.858;-116.858;2023-06-14T12:01:03;97875.66;;;21.33;54.14
53900;BME280;40509;32.858;-116.858;2023-06-14T12:03:30;97875.66;;;21.33;54.29
53900;BME280;40509;32.858;-116.858;2023-06-14T12:06:04;97876.47;;;21.33;54.31
53900;BME280;40509;32.858;-116.858;2023-06-14T12:08:34;97881.94;;;21.40;54.17
53900;BME280;40509;32.858;-116.858;2023-06-14T12:11:06;97882.25;;;21.37;54.04
53900;BME280;40509;32.858;-116.858;2023-06-14T12:13:34;97891.41;;;21.33;54.20
53900;BME280;40509;32.858;-116.858;2023-06-14T12:16:02;97882.56;;;21.34;54.32
53900;BME280;40509;32.858;-116.858;2023-06-14T12:18:36;97886.38;;;21.39;54.03
53900;BME280;40509;32.858;-116.858;2023-06-14T12:21:06;97884.72;;;21.38;54.14
53900;BME280;40509;32.858;-116.858;2023-06-14T12:23:43;97888.47;;;21.36;54.19
53900;BME280;40509;32.858;-116.858;2023-06-14T12:26:17;97886.38;;;21.39;53.97
53900;BME280;40509;32.858;-116.858;2023-06-14T12:28:44;97890.44;;;21.34;54.12
53900;BME280;40509;32.858;-116.858;2023-06-14T12:31:11;97893.06;;;21.34;54.12
53900;BME280;40509;32.858;-116.858;2023-06-14T12:33:39;97891.09;;;21.36;53.88
53900;BME280;40509;32.858;-116.858;2023-06-14T12:36:07;97898.31;;;21.34;54.11
53900;BME280;40509;32.858;-116.858;2023-06-14T12:38:35;97896.66;;;21.33;54.07
53900;BME280;40509;32.858;-116.858;2023-06-14T12:41:02;97902.28;;;21.38;54.07
53900;BME280;40509;32.858;-116.858;2023-06-14T12:43:29;97901.91;;;21.33;53.93
53900;BME280;40509;32.858;-116.858;2023-06-14T12:45:56;97901.06;;;21.32;54.23
53900;BME280;40509;32.858;-116.858;2023-06-14T12:48:22;97902.56;;;21.35;54.14
53900;BME280;40509;32.858;-116.858;2023-06-14T12:50:49;97901.59;;;21.36;53.89